createdAt,value
2018-07-07T00:01:25.122Z,55.60
2018-07-07T00:05:28.451Z,55.40
2018-07-07T00:09:31.798Z,55.70
2018-07-07T00:13:35.143Z,55.70
2018-07-07T00:17:38.456Z,55.20
2018-07-07T00:21:41.871Z,56.40
2018-07-07T00:25:45.193Z,54.60
2018-07-07T00:29:48.867Z,55.70
2018-07-07T00:33:52.220Z,56.10
2018-07-07T00:37:55.561Z,57.30
2018-07-07T00:41:58.880Z,54.70
2018-07-07T00:46:02.199Z,55.00
2018-07-07T00:50:06.506Z,55.60
2018-07-07T00:54:09.839Z,55.20
2018-07-07T00:58:13.210Z,54.80
2018-07-07T01:02:20.887Z,56.50
2018-07-07T01:06:27.461Z,55.70
2018-07-07T01:10:30.807Z,58.40
2018-07-07T01:14:34.163Z,55.30
2018-07-07T01:18:37.496Z,56.40
2018-07-07T01:22:40.848Z,56.20
2018-07-07T01:26:44.224Z,55.60
2018-07-07T01:30:47.571Z,55.70
2018-07-07T01:34:50.890Z,56.10
2018-07-07T01:38:54.268Z,56.90
2018-07-07T01:42:57.615Z,55.90
2018-07-07T01:47:01.133Z,56.70
2018-07-07T01:51:04.516Z,57.90
2018-07-07T01:55:07.870Z,55.60
2018-07-07T01:59:11.186Z,56.40
2018-07-07T02:03:14.539Z,58.20
2018-07-07T02:07:17.880Z,56.50
2018-07-07T02:11:21.323Z,56.80
2018-07-07T02:15:24.671Z,56.90
2018-07-07T02:19:27.981Z,58.50
2018-07-07T02:23:31.339Z,56.00
2018-07-07T02:27:34.676Z,55.40
2018-07-07T02:31:38.012Z,56.60
2018-07-07T02:35:41.358Z,56.20
2018-07-07T02:39:45.145Z,56.90
2018-07-07T02:43:48.539Z,56.00
2018-07-07T02:47:51.925Z,56.10
2018-07-07T02:51:55.384Z,56.40
2018-07-07T02:55:59.580Z,57.70
2018-07-07T03:00:02.900Z,57.30
2018-07-07T03:04:06.247Z,59.40
2018-07-07T03:08:09.604Z,57.30
2018-07-07T03:12:12.962Z,55.80
2018-07-07T03:16:16.467Z,58.70
2018-07-07T03:20:20.019Z,56.50
2018-07-07T03:24:23.408Z,59.10
2018-07-07T03:28:26.748Z,58.10
2018-07-07T03:32:30.100Z,56.80
2018-07-07T03:36:33.435Z,63.60
2018-07-07T03:40:36.797Z,59.30
2018-07-07T03:44:40.198Z,58.00
2018-07-07T03:48:43.531Z,57.60
2018-07-07T03:52:46.900Z,56.20
2018-07-07T03:56:51.743Z,57.30
2018-07-07T04:00:56.930Z,57.10
2018-07-07T04:05:01.258Z,56.60
2018-07-07T04:09:05.512Z,55.80
2018-07-07T04:13:08.893Z,57.40
2018-07-07T04:17:12.243Z,56.70
2018-07-07T04:21:15.600Z,56.80
2018-07-07T04:25:18.927Z,56.80
2018-07-07T04:29:22.373Z,57.30
2018-07-07T04:33:26.891Z,56.90
2018-07-07T04:37:30.252Z,57.50
2018-07-07T04:41:33.747Z,57.00
2018-07-07T04:45:37.144Z,59.90
2018-07-07T04:49:40.543Z,57.80
2018-07-07T04:53:43.871Z,58.10
2018-07-07T04:57:47.238Z,58.40
2018-07-07T05:01:50.604Z,58.40
2018-07-07T05:09:57.063Z,58.50
2018-07-07T05:14:00.452Z,60.70
2018-07-07T05:18:03.873Z,57.80
2018-07-07T05:22:07.265Z,59.10
2018-07-07T05:26:10.583Z,57.20
2018-07-07T05:30:13.928Z,57.70
2018-07-07T05:34:17.276Z,59.60
2018-07-07T05:38:20.740Z,56.90
2018-07-07T05:42:24.092Z,63.40
2018-07-07T05:46:27.403Z,58.80
2018-07-07T05:50:30.823Z,65.30
2018-07-07T05:54:35.007Z,63.60
2018-07-07T05:58:38.395Z,59.40
2018-07-07T06:02:41.790Z,59.80
2018-07-07T06:06:45.107Z,59.20
2018-07-07T06:10:48.460Z,58.30
2018-07-07T06:14:51.848Z,59.00
2018-07-07T06:18:55.223Z,61.30
2018-07-07T06:22:58.647Z,60.80
2018-07-07T06:27:02.068Z,58.80
2018-07-07T06:31:05.925Z,61.50
2018-07-07T06:35:09.727Z,58.50
2018-07-07T06:39:13.215Z,59.30
2018-07-07T06:43:16.569Z,59.30
2018-07-07T06:47:19.899Z,64.00
2018-07-07T06:51:23.238Z,58.20
2018-07-07T06:55:26.600Z,60.00
2018-07-07T06:59:29.999Z,62.90
2018-07-07T07:03:33.480Z,61.00
2018-07-07T07:07:36.736Z,60.30
2018-07-07T07:11:40.163Z,59.00
2018-07-07T07:15:43.526Z,59.80
2018-07-07T07:19:46.880Z,60.00
2018-07-07T07:23:50.222Z,61.10
2018-07-07T07:27:53.654Z,59.00
2018-07-07T07:31:57.006Z,59.60
2018-07-07T07:36:05.043Z,61.30
2018-07-07T07:40:08.375Z,59.90
2018-07-07T07:44:11.767Z,60.10
2018-07-07T07:48:15.087Z,62.30
2018-07-07T07:52:18.428Z,60.10
2018-07-07T07:56:21.767Z,62.40
2018-07-07T08:00:25.112Z,63.90
2018-07-07T08:04:28.464Z,60.40
2018-07-07T08:08:31.789Z,60.80
2018-07-07T08:12:35.144Z,60.70
2018-07-07T08:16:38.476Z,63.60
2018-07-07T08:20:41.831Z,62.40
2018-07-07T08:24:45.758Z,61.10
2018-07-07T08:28:49.116Z,61.90
2018-07-07T08:32:52.468Z,60.00
2018-07-07T08:36:55.840Z,60.40
2018-07-07T08:40:59.196Z,61.80
2018-07-07T08:45:02.538Z,61.00
2018-07-07T08:49:05.961Z,60.00
2018-07-07T08:53:09.298Z,60.70
2018-07-07T08:57:12.630Z,59.20
2018-07-07T09:01:15.979Z,60.90
2018-07-07T09:05:19.312Z,59.60
2018-07-07T09:09:22.632Z,61.00
2018-07-07T09:13:25.987Z,60.40
2018-07-07T09:17:29.326Z,59.50
2018-07-07T09:21:32.694Z,58.90
2018-07-07T09:25:36.044Z,59.50
2018-07-07T09:29:39.408Z,58.50
2018-07-07T09:33:42.748Z,58.40
2018-07-07T09:37:46.111Z,58.50
2018-07-07T09:41:49.455Z,58.20
2018-07-07T09:45:52.811Z,57.80
2018-07-07T09:49:56.154Z,57.70
2018-07-07T09:53:59.491Z,57.50
2018-07-07T09:58:02.842Z,57.30
2018-07-07T10:02:06.545Z,57.30
2018-07-07T10:06:09.974Z,57.40
2018-07-07T10:10:13.346Z,56.70
2018-07-07T10:14:16.708Z,56.70
2018-07-07T10:18:20.043Z,56.40
2018-07-07T10:22:23.403Z,55.90
2018-07-07T10:26:26.747Z,55.20
2018-07-07T10:30:30.109Z,56.10
2018-07-07T10:34:33.434Z,56.00
2018-07-07T10:38:36.762Z,55.20
2018-07-07T10:42:40.170Z,56.20
2018-07-07T10:46:43.583Z,54.90
2018-07-07T10:50:46.931Z,52.70
2018-07-07T10:54:50.283Z,54.00
2018-07-07T10:58:53.724Z,54.50
2018-07-07T11:02:57.102Z,53.90
2018-07-07T11:07:00.544Z,53.90
2018-07-07T11:11:03.914Z,53.90
2018-07-07T11:15:07.268Z,51.90
2018-07-07T11:19:10.604Z,51.80
2018-07-07T11:23:13.964Z,53.20
2018-07-07T11:27:17.292Z,53.20
2018-07-07T11:31:20.632Z,52.20
2018-07-07T11:35:23.956Z,51.80
2018-07-07T11:39:27.314Z,52.30
2018-07-07T11:43:30.690Z,52.70
2018-07-07T11:47:34.073Z,51.70
2018-07-07T11:51:37.516Z,51.30
2018-07-07T11:55:40.828Z,51.10
2018-07-07T11:59:44.160Z,52.80
2018-07-07T12:03:47.539Z,52.10
2018-07-07T12:08:00.713Z,52.60
2018-07-07T12:11:54.284Z,51.90
2018-07-07T12:15:57.615Z,50.40
2018-07-07T12:20:00.955Z,50.30
2018-07-07T12:24:04.368Z,51.00
2018-07-07T12:28:07.692Z,50.10
2018-07-07T12:32:11.037Z,51.40
2018-07-07T12:36:14.357Z,50.70
2018-07-07T12:40:17.740Z,50.50
2018-07-07T12:44:21.160Z,50.80
2018-07-07T12:48:24.529Z,50.20
2018-07-07T12:52:27.890Z,50.30
2018-07-07T12:56:31.519Z,49.70
2018-07-07T13:00:34.888Z,49.00
2018-07-07T13:04:38.238Z,50.40
2018-07-07T13:08:41.612Z,48.60
2018-07-07T13:12:45.392Z,49.70
2018-07-07T13:16:48.721Z,46.70
2018-07-07T13:20:52.080Z,50.20
2018-07-07T13:24:55.448Z,46.90
2018-07-07T13:28:58.783Z,48.60
2018-07-07T13:33:02.175Z,50.40
2018-07-07T13:37:05.984Z,47.40
2018-07-07T13:41:13.660Z,49.10
2018-07-07T13:45:17.031Z,49.50
2018-07-07T13:49:20.380Z,47.60
2018-07-07T13:53:23.754Z,47.00
2018-07-07T13:57:27.215Z,47.20
2018-07-07T14:01:30.589Z,47.40
2018-07-07T14:05:34.005Z,46.90
2018-07-07T14:09:37.344Z,48.80
2018-07-07T14:13:40.728Z,45.70
2018-07-07T14:17:44.074Z,48.50
2018-07-07T14:21:47.406Z,46.60
2018-07-07T14:25:50.749Z,45.10
2018-07-07T14:29:54.120Z,48.60
2018-07-07T14:33:57.507Z,46.70
2018-07-07T14:38:00.827Z,47.60
2018-07-07T14:42:16.992Z,47.00
2018-07-07T14:46:20.602Z,45.40
2018-07-07T14:50:24.280Z,46.80
2018-07-07T14:54:27.667Z,45.70
2018-07-07T14:58:31.011Z,46.10
2018-07-07T15:02:34.340Z,47.50
2018-07-07T15:06:37.680Z,44.40
2018-07-07T15:10:41.036Z,47.30
2018-07-07T15:14:44.388Z,45.40
2018-07-07T15:18:47.759Z,46.20
2018-07-07T15:22:51.117Z,43.80
2018-07-07T15:26:54.481Z,47.40
2018-07-07T15:30:58.034Z,47.20
2018-07-07T15:35:01.396Z,45.10
2018-07-07T15:39:05.595Z,45.60
2018-07-07T15:43:08.935Z,44.00
2018-07-07T15:47:12.280Z,43.10
2018-07-07T15:51:15.784Z,46.20
2018-07-07T15:55:19.119Z,44.80
2018-07-07T15:59:22.463Z,42.40
2018-07-07T16:03:25.829Z,42.50
2018-07-07T16:07:29.177Z,43.80
2018-07-07T16:11:32.604Z,43.70
2018-07-07T16:15:35.971Z,46.20
2018-07-07T16:19:39.320Z,45.50
2018-07-07T16:23:42.655Z,42.60
2018-07-07T16:27:45.979Z,40.90
2018-07-07T16:31:49.504Z,44.10
2018-07-07T16:35:52.888Z,45.80
2018-07-07T16:39:56.364Z,46.60
2018-07-07T16:43:59.876Z,41.90
2018-07-07T16:48:03.314Z,41.70
2018-07-07T16:52:06.881Z,43.90
2018-07-07T16:56:10.263Z,43.10
2018-07-07T17:00:13.664Z,46.00
2018-07-07T17:04:17.995Z,42.90
2018-07-07T17:08:21.371Z,44.40
2018-07-07T17:12:24.800Z,44.00
2018-07-07T17:16:35.709Z,44.50
2018-07-07T17:20:59.140Z,41.90
2018-07-07T17:25:03.972Z,43.10
2018-07-07T17:29:14.151Z,43.90
2018-07-07T17:33:17.560Z,44.00
2018-07-07T17:37:21.721Z,43.70
2018-07-07T17:41:25.104Z,45.90
2018-07-07T17:45:28.448Z,46.50
2018-07-07T17:49:31.821Z,46.60
2018-07-07T17:53:35.200Z,47.00
2018-07-07T17:57:38.755Z,47.50
2018-07-07T18:01:42.115Z,47.30
2018-07-07T18:05:45.472Z,47.50
2018-07-07T18:09:49.038Z,47.90
2018-07-07T18:13:52.419Z,48.50
2018-07-07T18:17:55.739Z,48.20
2018-07-07T18:21:59.090Z,48.30
2018-07-07T18:26:02.465Z,48.20
2018-07-07T18:30:05.790Z,48.40
2018-07-07T18:34:09.206Z,48.40
2018-07-07T18:38:12.652Z,48.70
2018-07-07T18:42:15.909Z,49.10
2018-07-07T18:46:19.261Z,48.80
2018-07-07T18:50:22.576Z,49.40
2018-07-07T18:54:25.914Z,49.50
2018-07-07T18:58:29.264Z,49.30
2018-07-07T19:02:32.631Z,49.70
2018-07-07T19:06:35.959Z,50.00
2018-07-07T19:10:39.269Z,50.60
2018-07-07T19:14:42.749Z,51.10
2018-07-07T19:18:46.109Z,50.40
2018-07-07T19:22:54.877Z,50.40
2018-07-07T19:26:59.503Z,51.80
2018-07-07T19:31:02.844Z,51.20
2018-07-07T19:35:11.447Z,51.50
2018-07-07T19:39:14.852Z,51.90
2018-07-07T19:43:18.231Z,52.50
2018-07-07T19:47:21.872Z,52.20
2018-07-07T19:51:25.349Z,51.50
2018-07-07T19:55:28.686Z,51.90
2018-07-07T19:59:32.206Z,51.40
2018-07-07T20:03:35.571Z,51.60
2018-07-07T20:07:39.319Z,52.90
2018-07-07T20:11:42.656Z,52.80
2018-07-07T20:15:56.109Z,53.70
2018-07-07T20:20:35.994Z,54.00
2018-07-07T20:24:40.405Z,53.30
2018-07-07T20:28:49.084Z,53.30
2018-07-07T20:32:52.663Z,54.40
2018-07-07T20:36:56.063Z,52.80
2018-07-07T20:40:59.452Z,52.90
2018-07-07T20:45:03.688Z,54.90
2018-07-07T20:49:07.067Z,54.50
2018-07-07T20:53:10.946Z,54.20
2018-07-07T20:57:14.297Z,54.40
2018-07-07T21:01:17.632Z,53.20
2018-07-07T21:05:20.994Z,54.90
2018-07-07T21:09:24.353Z,54.70
2018-07-07T21:13:27.694Z,54.20
2018-07-07T21:17:31.319Z,54.60
2018-07-07T21:21:34.663Z,55.00
2018-07-07T21:25:38.093Z,54.10
2018-07-07T21:29:41.683Z,55.10
2018-07-07T21:33:52.325Z,55.10
2018-07-07T21:37:55.656Z,55.60
2018-07-07T21:41:59.344Z,54.50
2018-07-07T21:46:03.332Z,56.20
2018-07-07T21:50:07.241Z,55.60
2018-07-07T21:54:11.585Z,53.90
2018-07-07T21:58:22.675Z,56.50
2018-07-07T22:02:31.411Z,55.30
2018-07-07T22:06:40.091Z,54.70
2018-07-07T22:10:43.589Z,57.00
2018-07-07T22:14:47.100Z,56.00
2018-07-07T22:18:50.415Z,56.60
2018-07-07T22:22:53.745Z,55.60
2018-07-07T22:26:59.106Z,56.90
2018-07-07T22:31:02.444Z,54.80
2018-07-07T22:35:11.075Z,55.70
2018-07-07T22:39:14.727Z,56.20
2018-07-07T22:43:18.077Z,55.30
2018-07-07T22:47:21.404Z,57.70
2018-07-07T22:51:24.768Z,55.70
2018-07-07T22:55:28.139Z,55.00
2018-07-07T22:59:31.493Z,57.60
2018-07-07T23:07:37.928Z,55.20
2018-07-07T23:11:41.317Z,56.10
2018-07-07T23:15:44.780Z,55.70
2018-07-07T23:19:48.174Z,56.80
2018-07-07T23:23:51.624Z,57.90
2018-07-07T23:31:58.031Z,59.00
2018-07-07T23:36:01.381Z,56.30
2018-07-07T23:40:04.730Z,59.00
2018-07-07T23:44:08.113Z,56.10
2018-07-07T23:48:14.455Z,58.40
2018-07-07T23:52:17.879Z,56.60
2018-07-07T23:56:21.232Z,56.60
